• Join FlightAware (Why Join?)
  • Login
  • US Flag 
10:53PM EDT


 

Airport Tracker/Info


-or-


 

Live Flight TrackerFlight Track Log ✈ CES2228 ✈ 26-Oct-2013 ✈ ZUJZ / JZH - ZSPD / PVG

Flight Track Log - Related Links

Times and Time Zones

All times are in EDT time to prevent confusion due to time zone crossing. See the CES2228 flight status page for this flight to view local times or setup timezone preferences in your user account.

Time Position Orientation Groundspeed Altitude Reporting Facility
EDT Latitude Longitude Course Direction KTS MPH feet Rate Location/Type
12:35AM 32.7313 107.1916 91° East  Level Estimated
12:36AM 32.7246 107.3263 93° East  Level Estimated
12:37AM 32.7176 107.4610 93° East  Level Estimated
12:38AM 32.7106 107.5957 94° East  Level Estimated
12:39AM 32.7034 107.7303 94° East  Level Estimated
12:40AM 32.6960 107.8650 94° East  Level Estimated
12:41AM 32.6885 107.9996 94° East  Level Estimated
12:42AM 32.6808 108.1342 94° East  Level Estimated
12:43AM 32.6730 108.2687 94° East  Level Estimated
12:44AM 32.6651 108.4033 94° East  Level Estimated
12:45AM 32.6570 108.5378 94° East  Level Estimated
12:46AM 32.6488 108.6723 94° East  Level Estimated
12:47AM 32.6405 108.8067 94° East  Level Estimated
12:48AM 32.6320 108.9412 94° East  Level Estimated
12:49AM 32.6233 109.0756 94° East  Level Estimated
12:50AM 32.6145 109.2100 94° East  Level Estimated
12:51AM 32.6056 109.3444 94° East  Level Estimated
12:52AM 32.5965 109.4787 95° East  Level Estimated
12:53AM 32.5873 109.6130 95° East  Level Estimated
12:54AM 32.5779 109.7473 95° East  Level Estimated
12:55AM 32.5684 109.8815 95° East  Level Estimated
12:56AM 32.5587 110.0158 95° East  Level Estimated
12:57AM 32.5490 110.1500 95° East  Level Estimated
12:58AM 32.5390 110.2841 95° East  Level Estimated
12:59AM 32.5289 110.4183 95° East  Level Estimated
01:00AM 32.5187 110.5524 95° East  Level Estimated
01:01AM 32.5084 110.6865 95° East  Level Estimated
01:02AM 32.4978 110.8205 95° East  Level Estimated
01:03AM 32.4872 110.9545 95° East  Level Estimated
01:04AM 32.4764 111.0885 95° East  Level Estimated
01:05AM 32.4655 111.2225 95° East  Level Estimated
01:06AM 32.4544 111.3564 96° East  Level Estimated
01:07AM 32.4432 111.4902 96° East  Level Estimated
01:08AM 32.4318 111.6241 96° East  Level Estimated
01:09AM 32.4203 111.7579 96° East  Level Estimated
01:10AM 32.4087 111.8917 96° East  Level Estimated
01:11AM 32.3969 112.0255 96° East  Level Estimated
01:12AM 32.3850 112.1592 96° East  Level Estimated
01:13AM 32.3729 112.2928 96° East  Level Estimated
01:14AM 32.3607 112.4265 96° East  Level Estimated
01:15AM 32.3484 112.5601 96° East  Level Estimated
01:16AM 32.3359 112.6936 96° East  Level Estimated
01:17AM 32.3232 112.8272 96° East  Level Estimated
01:18AM 32.3105 112.9607 96° East  Level Estimated
01:19AM 32.2976 113.0941 96° East  Level Estimated
01:20AM 32.2845 113.2275 97° East  Level Estimated
01:21AM 32.2713 113.3609 97° East  Level Estimated
01:22AM 32.2580 113.4943 97° East  Level Estimated
01:23AM 32.2445 113.6276 97° East  Level Estimated
01:24AM 32.2309 113.7608 97° East  Level Estimated
01:25AM 32.2172 113.8940 97° East  Level Estimated
01:26AM 32.2033 114.0272 97° East  Level Estimated
01:27AM 32.1893 114.1604 97° East  Level Estimated
01:28AM 32.1751 114.2935 97° East  Level Estimated
01:29AM 32.1608 114.4265 97° East  Level Estimated
01:30AM 32.1463 114.5595 97° East  Level Estimated
01:31AM 32.1317 114.6925 97° East  Level Estimated
01:32AM 32.1170 114.8254 97° East  Level Estimated
01:33AM 32.1022 114.9583 97° East  Level Estimated
01:34AM 32.0872 115.0912 98° East  Level Estimated
01:35AM 32.0720 115.2240 98° East  Level Estimated
01:36AM 32.0567 115.3567 98° East  Level Estimated
01:37AM 32.0413 115.4894 98° East  Level Estimated
01:38AM 32.0258 115.6221 98° East  Level Estimated
01:39AM 32.0101 115.7547 98° East  Level Estimated
01:40AM 31.9942 115.8873 98° East  Level Estimated
01:41AM 31.9783 116.0198 98° East  Level Estimated
01:42AM 31.9622 116.1523 98° East  Level Estimated
01:43AM 31.9459 116.2847 98° East  Level Estimated
01:44AM 31.9296 116.4171 98° East  Level Estimated
01:45AM 31.9130 116.5494 98° East  Level Estimated
01:46AM 31.8964 116.6817 98° East  Level Estimated
01:47AM 31.8796 116.8140 98° East  Level Estimated
01:48AM 31.8626 116.9462 99° East  Level Estimated
01:49AM 31.8456 117.0783 99° East  Level Estimated
01:50AM 31.8284 117.2104 99° East  Level Estimated
01:51AM 31.8110 117.3425 99° East  Level Estimated
01:52AM 31.7936 117.4745 99° East  Level Estimated
01:53AM 31.7760 117.6064 99° East  Level Estimated
01:54AM 31.7582 117.7383 99° East  Level Estimated
01:55AM 31.7403 117.8702 99° East  Level Estimated
01:56AM 31.7223 118.0020 99° East  Level Estimated
01:57AM 31.7042 118.1337 99° East  Level Estimated
01:58AM 31.6859 118.2654 99° East  Level Estimated
01:59AM 31.6674 118.3970 99° East  Level Estimated
02:00AM 31.6489 118.5286 99° East  Level Estimated
02:01AM 31.6302 118.6602 99° East  Level Estimated
02:02AM 31.6114 118.7917 100° East  Level Estimated
02:03AM 31.5924 118.9231 100° East  Level Estimated
02:04AM 31.5733 119.0545 100° East  Level Estimated
02:05AM 31.5541 119.1858 100° East  Level Estimated
02:05AM 31.6950 118.4510 100° East 504 580 29,100  Level FlightAware
02:06AM 31.5347 119.3171 100° East  Level Estimated
02:06AM 31.6890 118.5250 95° East 504 580 29,100  Level FlightAware
02:06AM 31.6850 118.5830 95° East 504 580 29,100  Level FlightAware
02:07AM 31.5152 119.4483 100° East  Level Estimated
02:07AM 31.6780 118.6910 94° East 501 577 29,100  Level FlightAware
02:07AM 31.6710 118.7810 95° East 499 574 29,100  Level FlightAware
02:08AM 31.6620 118.8960 95° East 499 574 29,100  Level FlightAware
02:09AM 31.6560 118.9780 95° East 499 574 29,100 -420 Level FlightAware
02:09AM 31.6480 119.0860 95° East 498 573 28,600 -420 Descending FlightAware
02:10AM 31.6420 119.1680 95° East 498 573 28,600  Level FlightAware
02:11AM 31.6360 119.2550 95° East 498 573 28,600  Level FlightAware
02:11AM 31.6320 119.3100 95° East 498 573 28,600  Level FlightAware
02:12AM 31.6250 119.3950 96° East 498 573 28,600  Level FlightAware
02:12AM 31.6190 119.4770 95° East 498 573 28,600  Level FlightAware
02:13AM 31.6130 119.5600 95° East 498 573 28,600 -1,440 Level FlightAware
02:16AM 31.5457 119.8928 103° East  Level Estimated
02:17AM 31.5192 120.0223 103° East  Level Estimated
02:18AM 31.4926 120.1518 104° East  Level Estimated
02:19AM 31.4659 120.2812 104° East  Level Estimated
02:19AM 31.5780 120.3610 104° East 403 464 19,700  Level FlightAware
02:19AM 31.5530 120.4450 109° East 403 464 19,700  Level FlightAware
02:20AM 31.5310 120.5160 110° East 380 437 19,700  Level FlightAware
02:21AM 31.5000 120.6200 109° East 378 435 19,700 -540 Level FlightAware
02:21AM 31.4770 120.6990 109° East 373 429 18,900 -1,320 Descending FlightAware
02:22AM 31.4550 120.7730 109° East 362 417 18,000 -1,440 Descending FlightAware
02:23AM 31.4350 120.8380 110° East 353 406 17,100 -1,500 Descending FlightAware
02:23AM 31.4160 120.8990 110° East 345 397 16,300 -1,500 Descending FlightAware
02:24AM 31.4010 120.9500 109° East 343 395 15,500 -1,560 Descending FlightAware
02:24AM 31.3800 121.0200 109° East 339 390 14,500 -1,140 Descending FlightAware
02:25AM 31.3360 121.1260 116° Southeast 333 383 13,600 -1,020 Descending FlightAware
02:26AM 31.3070 121.1560 139° Southeast 327 376 13,000 -1,500 Descending FlightAware
02:27AM 31.2400 121.2230 139° Southeast 318 366 11,500 -1,500 Descending FlightAware
02:28AM 31.1810 121.2840 138° Southeast 312 359 10,200 -1,140 Descending FlightAware
02:29AM 31.1290 121.3370 139° Southeast 304 350 9,600 -660 Descending FlightAware
02:29AM 31.1150 121.3790 111° Southeast 284 327 9,400 -840 Descending FlightAware
02:30AM 31.1060 121.4450 99° East 270 311 8,600 -1,200 Descending FlightAware
02:30AM 31.1000 121.4940 98° East 265 305 7,800 -900 Descending FlightAware
02:31AM 31.0840 121.5420 111° Southeast 276 318 7,600 -780 Descending FlightAware
02:31AM 31.0560 121.5720 137° Southeast 266 306 7,000 -1,200 Descending FlightAware
02:32AM 31.0400 121.5880 139° Southeast 267 307 6,600 -540 Descending FlightAware
02:32AM 31.0210 121.6090 137° Southeast 267 307 6,600 -840 Level FlightAware
02:35AM 31.1428 121.7924 52° Northeast  Level Estimated
02:35AM 30.8650 121.7940 221° Southwest 195 224 3,700  Level FlightAware
02:36AM 31.1428 121.7924 221° Southwest  Level Estimated
02:36AM 30.8730 121.8460 80° East 186 214 3,700  Level FlightAware
02:37AM 31.1428 121.7924 221° Southwest  Level Estimated
02:37AM 30.8970 121.8630 31° Northeast 170 196 3,400  Level FlightAware
02:37AM 30.9160 121.8690 15° North 166 191 3,100 -540 Descending FlightAware
02:38AM 30.9520 121.8600 348° North 167 192 2,800 -360 Descending FlightAware
02:39AM 30.9870 121.8470 342° North 171 197 2,600 -600 Descending FlightAware
02:39AM 31.0130 121.8370 342° North 154 177 2,000 -900 Descending FlightAware
02:40AM 31.0360 121.8280 341° North 119 137 1,600 -720 Descending FlightAware
02:41AM 31.0550 121.8210 342° North 117 135 1,200 -600 Descending FlightAware
02:41AM 31.0720 121.8140 341° North 122 140 900 -660 Descending FlightAware
02:42AM 31.0950 121.8060 343° North 122 140 400 -420 Descending FlightAware
02:42AM 31.1110 121.8000 342° North 123 142 400  Level FlightAware
02:45AM 31.1428 121.7924 348° North  Level Estimated